»·PEaware :: XACAM KLAS-KSAN

XACAM :: KLAS-KSAN

FLIGHT INFORMATION

Flight Status: Arrived
Operator: Unknown
More flights by this operator :: More flights under this callsign
Pilot: Rafael C. (24230)
Aircraft: BOEING 737-600
(B736)
More flights by this aircraft type
Origin: KLAS Harry Reid Intl
United States
Destination: KSAN San Diego Intl-Lindbergh
United States
More flights between these airports :: More routes between these airports
Route: RADYR2 LVELL LUCKI1
File this flight plan on PilotEdge
Remarks:
Altitude:
(Current/Filed)
32,000ft
Speed:
(Current/Filed)
430kts
Departed: 16-Jul-23 04:43 PM
Arrived: 16-Jul-23 05:31 PM
Distance/Time
Traveled:
225nm/0:47
Distance/Time
To Go:
Arrived

Flight Plot

Page will automatically refresh every two minutes.

Flight plan parsing failed; only flown route is shown


Map Options




Map Legend


Flown Route
Filed Route
Departure Airport
Arrival Airport
Navaid (VOR, NDB)
Fix

Horizontal Profiles

Position Reports

Time Latitude Longitude Heading Altitude Ground
Speed
16-Jul-23 16:15 36.080945 -115.170521 179 2183ft 0kts
16-Jul-23 16:16 36.080945 -115.170521 179 2183ft 0kts
16-Jul-23 16:17 36.080945 -115.170521 179 2183ft 0kts
16-Jul-23 16:18 36.080945 -115.170521 179 2183ft 0kts
16-Jul-23 16:19 36.080945 -115.170521 179 2183ft 0kts
16-Jul-23 16:20 36.080945 -115.170521 179 2183ft 0kts
16-Jul-23 16:21 36.080945 -115.170521 179 2183ft 0kts
16-Jul-23 16:22 36.080945 -115.170521 179 2183ft 0kts
16-Jul-23 16:23 36.080945 -115.170521 179 2192ft 0kts
16-Jul-23 16:24 36.080945 -115.170521 179 2192ft 0kts
16-Jul-23 16:25 36.080945 -115.170521 179 2192ft 0kts
16-Jul-23 16:26 36.080945 -115.170521 179 2192ft 0kts
16-Jul-23 16:27 36.080945 -115.170521 179 2192ft 0kts
16-Jul-23 16:28 36.080945 -115.170521 179 2192ft 0kts
16-Jul-23 16:29 36.080945 -115.170521 179 2192ft 0kts
16-Jul-23 16:30 36.080945 -115.170521 179 2192ft 0kts
16-Jul-23 16:31 36.080945 -115.170521 179 2192ft 0kts
16-Jul-23 16:32 36.080945 -115.170521 179 2192ft 0kts
16-Jul-23 16:33 36.080945 -115.170521 179 2192ft 0kts
16-Jul-23 16:34 36.080945 -115.170521 179 2192ft 0kts
16-Jul-23 16:35 36.080945 -115.170521 179 2192ft 0kts
16-Jul-23 16:36 36.080945 -115.170521 179 2192ft 0kts
16-Jul-23 16:37 36.080945 -115.170521 179 2192ft 0kts
16-Jul-23 16:38 36.080945 -115.170521 179 2183ft 0kts
16-Jul-23 16:39 36.080945 -115.170521 179 2183ft 0kts
16-Jul-23 16:40 36.078566 -115.170904 205 2187ft 17kts
16-Jul-23 16:41 36.077403 -115.171206 179 2190ft 0kts
16-Jul-23 16:42 36.076362 -115.166074 89 2176ft 84kts
16-Jul-23 16:43 36.075349 -115.116383 98 3951ft 166kts
16-Jul-23 16:44 36.069666 -115.040058 102 5574ft 256kts
16-Jul-23 16:45 36.055639 -114.950860 101 8985ft 275kts
16-Jul-23 16:46 36.004217 -114.890003 168 12382ft 289kts
16-Jul-23 16:47 35.942442 -114.928887 224 13985ft 346kts
16-Jul-23 16:48 35.876804 -115.023370 256 16302ft 377kts
16-Jul-23 16:49 35.857543 -115.154324 259 18806ft 396kts
16-Jul-23 16:50 35.822749 -115.280493 221 18957ft 404kts
16-Jul-23 16:51 35.721440 -115.335606 198 21679ft 404kts
16-Jul-23 16:52 35.614525 -115.384363 193 23998ft 414kts
16-Jul-23 16:53 35.499148 -115.380323 176 25887ft 421kts
16-Jul-23 16:54 35.379993 -115.371590 177 27652ft 433kts
16-Jul-23 16:55 35.260213 -115.363138 177 29971ft 430kts
16-Jul-23 16:56 35.140884 -115.354722 178 31882ft 428kts
16-Jul-23 16:57 35.021909 -115.346418 178 31893ft 430kts
16-Jul-23 16:58 34.901961 -115.338089 178 31860ft 431kts
16-Jul-23 16:59 34.782467 -115.331786 189 31809ft 428kts
16-Jul-23 17:00 34.670715 -115.378710 201 31807ft 426kts
16-Jul-23 17:01 34.558913 -115.428094 200 31784ft 427kts
16-Jul-23 17:02 34.446956 -115.476874 200 31775ft 428kts
16-Jul-23 17:04 34.335136 -115.525495 200 31777ft 428kts
16-Jul-23 17:05 34.232998 -115.598132 212 31787ft 426kts
16-Jul-23 17:06 34.125086 -115.656340 200 31803ft 427kts
16-Jul-23 17:07 34.014157 -115.707376 201 31822ft 427kts
16-Jul-23 17:08 33.903311 -115.759756 202 31820ft 426kts
16-Jul-23 17:09 33.793457 -115.813842 201 29679ft 423kts
16-Jul-23 17:10 33.686335 -115.864590 199 27494ft 405kts
16-Jul-23 17:11 33.583298 -115.912632 199 25557ft 391kts
16-Jul-23 17:12 33.493719 -115.979283 233 23575ft 391kts
16-Jul-23 17:13 33.432993 -116.085749 233 21590ft 380kts
16-Jul-23 17:14 33.373493 -116.188239 233 19844ft 369kts
16-Jul-23 17:15 33.303241 -116.271284 203 18222ft 360kts
16-Jul-23 17:16 33.211378 -116.324054 203 16564ft 367kts
16-Jul-23 17:17 33.121928 -116.376263 202 15000ft 351kts
16-Jul-23 17:18 33.035252 -116.426847 202 13439ft 343kts
16-Jul-23 17:19 32.958010 -116.490933 219 11921ft 339kts
16-Jul-23 17:20 32.887544 -116.563244 218 10442ft 327kts
16-Jul-23 17:21 32.821374 -116.629891 218 9677ft 289kts
16-Jul-23 17:22 32.764909 -116.694888 241 7802ft 281kts
16-Jul-23 17:23 32.728153 -116.774465 240 6417ft 263kts
16-Jul-23 17:24 32.696907 -116.849453 251 5507ft 249kts
16-Jul-23 17:25 32.674880 -116.925044 257 4377ft 230kts
16-Jul-23 17:26 32.685871 -116.993433 286 3381ft 194kts
16-Jul-23 17:27 32.699767 -117.050601 286 2517ft 169kts
16-Jul-23 17:27 32.709747 -117.091656 285 1794ft 144kts
16-Jul-23 17:29 32.722206 -117.142938 283 814ft 138kts
16-Jul-23 17:30 32.732052 -117.183502 286 33ft 116kts
16-Jul-23 17:31 32.734056 -117.194969 187 26ft 7kts
16-Jul-23 17:32 32.733951 -117.194981 184 27ft 0kts
16-Jul-23 17:32 32.733463 -117.193567 104 26ft 14kts
16-Jul-23 17:33 32.732425 -117.192991 196 23ft 0kts
16-Jul-23 17:35 32.732425 -117.192991 196 23ft 0kts
16-Jul-23 17:36 32.732425 -117.192991 196 23ft 0kts
16-Jul-23 17:36 32.732425 -117.192991 196 23ft 0kts

Navigation Log

Ident Type
Flight plan parsing failed, navigation log unavailable